Time;durP1;ratioP1;P1;durP2;ratioP2;P2;SDS_P1;SDS_P2;PMS_P1;PMS_P2;Temp;Humidity;BMP_temperature;BMP_pressure;BME280_temperature;BME280_humidity;BME280_pressure;Samples;Min_cycle;Max_cycle;Signal;HPM_P1;HPM_P2
2022/01/17 00:00:59;;;;;;;9.52;6.68;;;;;;;;;;5112127;28;20096;-88
2022/01/17 00:03:26;;;;;;;10.32;6.68;;;;;;;;;;5093193;28;20038;-87
2022/01/17 00:05:55;;;;;;;9.35;6.78;;;;;;;;;;5093815;28;20092;-88
2022/01/17 00:08:21;;;;;;;8.60;6.35;;;;;;;;;;5094134;28;20024;-87
2022/01/17 00:10:48;;;;;;;9.38;6.35;;;;;;;;;;5094350;28;20027;-87
2022/01/17 00:13:23;;;;;;;8.45;6.22;;;;;;;;;;5112437;28;20137;-87
2022/01/17 00:15:54;;;;;;;11.63;7.40;;;;;;;;;;5094026;28;20451;-85
2022/01/17 00:18:52;;;;;;;11.20;7.05;;;;;;;;;;5093569;28;20068;-87
2022/01/17 00:21:13;;;;;;;8.60;6.38;;;;;;;;;;5112378;28;20385;-87
2022/01/17 00:23:39;;;;;;;9.38;6.65;;;;;;;;;;5093648;28;20050;-87
2022/01/17 00:26:05;;;;;;;9.50;6.57;;;;;;;;;;5112121;28;20055;-87
2022/01/17 00:28:32;;;;;;;8.70;6.57;;;;;;;;;;5111890;28;20475;-88
2022/01/17 00:30:59;;;;;;;10.57;7.07;;;;;;;;;;5093406;28;20027;-87
2022/01/17 00:33:25;;;;;;;8.38;6.80;;;;;;;;;;5093607;28;20024;-87
2022/01/17 00:35:51;;;;;;;7.80;6.22;;;;;;;;;;5112094;28;20103;-88
2022/01/17 00:38:17;;;;;;;8.20;6.63;;;;;;;;;;5112361;28;20055;-88
2022/01/17 00:40:43;;;;;;;9.13;6.30;;;;;;;;;;5111732;28;20111;-87
2022/01/17 00:43:11;;;;;;;9.52;6.75;;;;;;;;;;5093644;28;20484;-87
2022/01/17 00:45:39;;;;;;;7.82;6.10;;;;;;;;;;5111875;28;20491;-88
2022/01/17 00:48:05;;;;;;;10.57;6.97;;;;;;;;;;5112010;28;20479;-88
2022/01/17 00:50:32;;;;;;;10.13;6.75;;;;;;;;;;5093485;28;20027;-88
2022/01/17 00:53:02;;;;;;;9.50;6.90;;;;;;;;;;5093915;28;20023;-88
2022/01/17 00:55:29;;;;;;;10.27;7.53;;;;;;;;;;5093184;28;20498;-87
2022/01/17 00:57:55;;;;;;;9.43;6.80;;;;;;;;;;5093704;28;20047;-87
2022/01/17 01:00:21;;;;;;;9.38;6.28;;;;;;;;;;5111127;28;20477;-87
2022/01/17 01:02:47;;;;;;;8.43;6.75;;;;;;;;;;5111983;28;20028;-87
2022/01/17 01:05:13;;;;;;;9.18;6.88;;;;;;;;;;5093662;28;20026;-88
2022/01/17 01:07:40;;;;;;;9.65;6.72;;;;;;;;;;5092913;28;20027;-87
2022/01/17 01:10:10;;;;;;;9.00;6.60;;;;;;;;;;5111261;28;20020;-86
2022/01/17 01:12:36;;;;;;;9.27;7.03;;;;;;;;;;5111526;28;20508;-86
2022/01/17 01:15:05;;;;;;;9.60;7.28;;;;;;;;;;5111872;28;20031;-85
2022/01/17 01:17:46;;;;;;;7.80;6.22;;;;;;;;;;5097080;28;20020;-86
2022/01/17 01:20:25;;;;;;;8.88;6.18;;;;;;;;;;5115707;28;20020;-86
2022/01/17 01:28:22;;;;;;;8.68;6.47;;;;;;;;;;5115142;28;20042;-87
2022/01/17 01:30:52;;;;;;;9.23;6.22;;;;;;;;;;5097465;28;20483;-86
2022/01/17 01:33:32;;;;;;;8.57;6.18;;;;;;;;;;5115837;28;20110;-87
2022/01/17 01:36:04;;;;;;;9.32;6.93;;;;;;;;;;5097183;28;20023;-87
2022/01/17 01:38:30;;;;;;;9.68;6.70;;;;;;;;;;5115067;28;20153;-87
2022/01/17 01:40:56;;;;;;;9.98;6.40;;;;;;;;;;5115149;28;20120;-86
2022/01/17 01:43:22;;;;;;;9.15;6.38;;;;;;;;;;5114993;28;20034;-86
2022/01/17 01:45:49;;;;;;;9.75;6.30;;;;;;;;;;5097025;28;20020;-87
2022/01/17 01:48:15;;;;;;;9.13;6.78;;;;;;;;;;5097057;28;20032;-85
2022/01/17 01:50:41;;;;;;;7.93;6.00;;;;;;;;;;5096406;28;20107;-86
2022/01/17 01:53:07;;;;;;;9.35;6.38;;;;;;;;;;5115058;28;20030;-87
2022/01/17 01:55:33;;;;;;;10.00;6.82;;;;;;;;;;5114663;28;20016;-87
2022/01/17 01:58:00;;;;;;;10.23;5.70;;;;;;;;;;5096405;28;20054;-86
2022/01/17 02:00:26;;;;;;;9.25;6.45;;;;;;;;;;5096295;28;20019;-86
2022/01/17 02:02:52;;;;;;;10.80;7.22;;;;;;;;;;5096633;28;20040;-86
2022/01/17 02:05:19;;;;;;;9.95;6.50;;;;;;;;;;5096486;28;20016;-86
2022/01/17 02:07:45;;;;;;;8.25;6.00;;;;;;;;;;5114980;28;20031;-86
2022/01/17 02:10:12;;;;;;;8.77;6.43;;;;;;;;;;5096733;28;20368;-86
2022/01/17 02:12:38;;;;;;;9.07;6.38;;;;;;;;;;5114450;28;20035;-87
2022/01/17 02:15:05;;;;;;;8.50;6.18;;;;;;;;;;5114743;28;20102;-85
2022/01/17 02:17:34;;;;;;;8.98;6.15;;;;;;;;;;5114325;28;20039;-87
2022/01/17 02:20:09;;;;;;;8.65;5.95;;;;;;;;;;5096166;28;20020;-87
2022/01/17 02:22:35;;;;;;;8.55;6.43;;;;;;;;;;5095893;28;20570;-87
2022/01/17 02:25:01;;;;;;;9.25;6.03;;;;;;;;;;5114482;28;20491;-86
2022/01/17 02:27:27;;;;;;;8.57;5.82;;;;;;;;;;5113021;28;20028;-87
2022/01/17 02:29:53;;;;;;;8.93;6.13;;;;;;;;;;5114147;28;20084;-87
2022/01/17 02:32:20;;;;;;;7.43;5.82;;;;;;;;;;5113951;28;20022;-86
2022/01/17 02:34:46;;;;;;;7.97;5.90;;;;;;;;;;5114405;28;20369;-86
2022/01/17 02:37:12;;;;;;;8.82;6.03;;;;;;;;;;5114192;28;20546;-86
2022/01/17 02:39:39;;;;;;;9.40;5.97;;;;;;;;;;5114050;28;20058;-86
2022/01/17 02:42:05;;;;;;;8.55;6.07;;;;;;;;;;5114278;28;20043;-86
2022/01/17 02:44:31;;;;;;;11.10;6.20;;;;;;;;;;5095387;28;20030;-87
2022/01/17 02:47:00;;;;;;;9.73;6.38;;;;;;;;;;5095664;28;20028;-87
2022/01/17 02:49:26;;;;;;;8.38;5.60;;;;;;;;;;5113893;28;20085;-86
2022/01/17 02:51:53;;;;;;;7.22;5.90;;;;;;;;;;5113830;28;20107;-87
2022/01/17 02:54:19;;;;;;;9.48;6.53;;;;;;;;;;5095386;28;20391;-88
2022/01/17 02:56:45;;;;;;;9.38;6.05;;;;;;;;;;5095391;28;20023;-87
2022/01/17 02:59:11;;;;;;;8.98;6.30;;;;;;;;;;5095614;28;20714;-86
2022/01/17 03:01:37;;;;;;;8.15;5.95;;;;;;;;;;5095291;28;20042;-86
2022/01/17 03:04:04;;;;;;;7.97;6.53;;;;;;;;;;5113825;28;20023;-86
2022/01/17 03:06:30;;;;;;;8.35;5.82;;;;;;;;;;5095056;28;20479;-86
2022/01/17 03:08:56;;;;;;;9.02;5.93;;;;;;;;;;5095220;28;20016;-86
2022/01/17 03:11:24;;;;;;;10.27;6.30;;;;;;;;;;5113302;28;20134;-87
2022/01/17 03:13:51;;;;;;;9.80;5.72;;;;;;;;;;5095202;28;20502;-86
2022/01/17 03:16:18;;;;;;;8.70;5.53;;;;;;;;;;5095411;28;20108;-86
2022/01/17 03:18:50;;;;;;;7.78;5.43;;;;;;;;;;5113817;28;20023;-87
2022/01/17 03:21:16;;;;;;;9.20;6.28;;;;;;;;;;5113771;28;20035;-88
2022/01/17 03:23:43;;;;;;;7.88;5.63;;;;;;;;;;5113036;28;20026;-85
2022/01/17 03:26:09;;;;;;;7.45;5.32;;;;;;;;;;5094581;28;20506;-85
2022/01/17 03:28:36;;;;;;;6.85;5.32;;;;;;;;;;5112788;28;20023;-85
2022/01/17 03:31:02;;;;;;;7.35;5.45;;;;;;;;;;5094697;28;20035;-85
2022/01/17 03:33:28;;;;;;;6.85;5.20;;;;;;;;;;5094558;28;20107;-85
2022/01/17 03:35:54;;;;;;;7.78;5.65;;;;;;;;;;5112887;28;20034;-86
2022/01/17 03:38:21;;;;;;;8.55;6.22;;;;;;;;;;5112195;28;20020;-86
2022/01/17 03:40:50;;;;;;;8.85;5.78;;;;;;;;;;5094189;28;20024;-87
2022/01/17 03:43:17;;;;;;;8.13;5.35;;;;;;;;;;5113188;28;20020;-86
2022/01/17 03:45:45;;;;;;;7.65;5.63;;;;;;;;;;5112799;28;20031;-86
2022/01/17 03:48:11;;;;;;;10.23;5.85;;;;;;;;;;5112906;28;20016;-87
2022/01/17 03:50:37;;;;;;;7.28;5.07;;;;;;;;;;5094240;28;20024;-87
2022/01/17 03:53:03;;;;;;;8.45;5.55;;;;;;;;;;5094418;28;20118;-87
2022/01/17 03:55:32;;;;;;;7.05;5.30;;;;;;;;;;5094212;28;20023;-86
2022/01/17 03:57:58;;;;;;;7.45;5.82;;;;;;;;;;5093879;28;21580;-86
2022/01/17 04:00:26;;;;;;;7.57;5.18;;;;;;;;;;5112326;28;20031;-86
2022/01/17 04:02:53;;;;;;;7.65;5.25;;;;;;;;;;5112509;28;20028;-86
2022/01/17 04:05:19;;;;;;;9.10;5.32;;;;;;;;;;5112632;28;20023;-87
2022/01/17 04:07:46;;;;;;;9.73;6.40;;;;;;;;;;5112768;28;20387;-86
2022/01/17 04:10:13;;;;;;;7.32;5.10;;;;;;;;;;5094161;28;20463;-89
2022/01/17 04:12:39;;;;;;;7.88;5.90;;;;;;;;;;5112077;28;20362;-88
2022/01/17 04:15:06;;;;;;;7.35;5.88;;;;;;;;;;5094101;28;20380;-85
2022/01/17 04:17:33;;;;;;;8.55;6.03;;;;;;;;;;5093761;28;20483;-87
2022/01/17 04:20:06;;;;;;;9.80;4.90;;;;;;;;;;5093996;28;20024;-84
2022/01/17 04:22:35;;;;;;;7.90;5.55;;;;;;;;;;5111841;28;20476;-86
2022/01/17 04:25:01;;;;;;;9.30;5.35;;;;;;;;;;5093847;28;20023;-86
2022/01/17 04:27:27;;;;;;;7.53;5.05;;;;;;;;;;5092881;28;20028;-87
2022/01/17 04:29:53;;;;;;;8.25;5.03;;;;;;;;;;5112234;28;20031;-88
2022/01/17 04:32:19;;;;;;;7.57;5.32;;;;;;;;;;5112501;28;20023;-89
2022/01/17 04:34:45;;;;;;;6.70;4.78;;;;;;;;;;5094622;28;20479;-88
2022/01/17 04:37:11;;;;;;;8.00;5.07;;;;;;;;;;5094484;28;20023;-88
2022/01/17 04:39:37;;;;;;;6.53;5.03;;;;;;;;;;5112369;28;20064;-87
2022/01/17 04:42:10;;;;;;;7.43;4.88;;;;;;;;;;5094082;28;20100;-88
2022/01/17 04:47:21;;;;;;;9.45;5.68;;;;;;;;;;5111856;28;20062;-88
2022/01/17 04:49:47;;;;;;;6.50;4.80;;;;;;;;;;5093642;28;20020;-87
2022/01/17 04:52:14;;;;;;;8.10;5.07;;;;;;;;;;5093436;28;20497;-87
2022/01/17 04:54:44;;;;;;;7.78;5.18;;;;;;;;;;5093411;28;20034;-87
2022/01/17 04:57:11;;;;;;;7.55;4.93;;;;;;;;;;5093275;28;20483;-88
2022/01/17 04:59:39;;;;;;;7.20;4.93;;;;;;;;;;5093969;28;20020;-89
2022/01/17 05:02:06;;;;;;;6.88;4.82;;;;;;;;;;5112230;28;20134;-89
2022/01/17 05:04:32;;;;;;;7.45;4.65;;;;;;;;;;5093406;28;20463;-89
2022/01/17 05:06:58;;;;;;;7.07;5.03;;;;;;;;;;5093544;28;20032;-90
2022/01/17 05:09:24;;;;;;;6.95;4.47;;;;;;;;;;5093823;28;20016;-89
2022/01/17 05:11:51;;;;;;;6.93;4.53;;;;;;;;;;5095001;28;20032;-88
2022/01/17 05:14:17;;;;;;;6.45;4.68;;;;;;;;;;5096971;28;20438;-89
2022/01/17 05:16:48;;;;;;;7.63;4.65;;;;;;;;;;5094475;28;20032;-91
2022/01/17 05:22:00;;;;;;;6.55;4.97;;;;;;;;;;5111551;28;20103;-88
2022/01/17 05:24:26;;;;;;;8.15;4.85;;;;;;;;;;5093134;28;20107;-84
2022/01/17 05:26:52;;;;;;;7.35;4.75;;;;;;;;;;5111342;28;20096;-90
2022/01/17 05:29:19;;;;;;;6.55;4.28;;;;;;;;;;5112352;28;20024;-89
2022/01/17 05:31:45;;;;;;;8.85;4.65;;;;;;;;;;5112215;28;20150;-88
2022/01/17 05:34:11;;;;;;;5.53;4.57;;;;;;;;;;5111573;28;20095;-87
2022/01/17 05:36:37;;;;;;;6.47;4.40;;;;;;;;;;5093374;28;20035;-88
2022/01/17 05:39:03;;;;;;;6.25;4.60;;;;;;;;;;5111674;28;20475;-87
2022/01/17 05:41:29;;;;;;;6.53;4.40;;;;;;;;;;5111177;28;20040;-87
2022/01/17 05:43:55;;;;;;;7.28;4.50;;;;;;;;;;5111560;28;20031;-86
2022/01/17 05:46:22;;;;;;;7.50;4.50;;;;;;;;;;5093168;28;20059;-88
2022/01/17 05:48:48;;;;;;;6.70;4.60;;;;;;;;;;5093714;28;20070;-90
2022/01/17 05:51:13;;;;;;;13.15;5.47;;;;;;;;;;5093454;28;20032;-90
2022/01/17 05:53:40;;;;;;;6.30;4.18;;;;;;;;;;5093387;28;20410;-89
2022/01/17 05:56:06;;;;;;;7.18;4.53;;;;;;;;;;5092894;28;20475;-89
2022/01/17 05:58:32;;;;;;;6.75;4.35;;;;;;;;;;5111156;28;20023;-88
2022/01/17 06:00:58;;;;;;;7.78;4.72;;;;;;;;;;5092331;28;20130;-85
2022/01/17 06:03:25;;;;;;;6.75;4.43;;;;;;;;;;5112874;28;20490;-86
2022/01/17 06:05:51;;;;;;;7.95;5.10;;;;;;;;;;5114792;28;20030;-85
2022/01/17 06:08:17;;;;;;;6.65;4.07;;;;;;;;;;5115033;28;20016;-87
2022/01/17 06:10:43;;;;;;;9.10;4.53;;;;;;;;;;5114652;28;20383;-86
2022/01/17 06:13:10;;;;;;;7.45;4.30;;;;;;;;;;5114592;28;20036;-88
2022/01/17 06:15:36;;;;;;;6.85;4.40;;;;;;;;;;5096423;28;20055;-86
2022/01/17 06:18:02;;;;;;;5.95;4.00;;;;;;;;;;5114832;28;20116;-89
2022/01/17 06:20:28;;;;;;;6.60;4.18;;;;;;;;;;5114255;28;20107;-92
2022/01/17 06:22:54;;;;;;;5.38;4.10;;;;;;;;;;5096667;28;20571;-87
2022/01/17 06:25:20;;;;;;;6.47;3.90;;;;;;;;;;5095987;28;20093;-86
2022/01/17 06:27:46;;;;;;;7.07;4.05;;;;;;;;;;5096876;28;20495;-87
2022/01/17 06:30:15;;;;;;;5.10;3.65;;;;;;;;;;5114583;28;20028;-86
2022/01/17 06:32:42;;;;;;;6.78;4.30;;;;;;;;;;5096166;28;20061;-88
2022/01/17 06:35:08;;;;;;;6.32;4.22;;;;;;;;;;5096345;28;20030;-90
2022/01/17 06:37:35;;;;;;;5.75;3.67;;;;;;;;;;5114595;28;20432;-90
2022/01/17 06:40:02;;;;;;;7.13;4.05;;;;;;;;;;5096456;28;20031;-90
2022/01/17 06:42:28;;;;;;;5.72;4.05;;;;;;;;;;5114204;28;20097;-89
2022/01/17 06:44:54;;;;;;;6.55;4.30;;;;;;;;;;5114023;28;20027;-85
2022/01/17 06:47:20;;;;;;;5.85;4.18;;;;;;;;;;5114070;28;20070;-86
2022/01/17 06:49:46;;;;;;;5.43;4.20;;;;;;;;;;5114145;28;20031;-85
2022/01/17 06:52:12;;;;;;;8.20;4.35;;;;;;;;;;5113828;28;20032;-85
2022/01/17 06:54:38;;;;;;;6.95;4.30;;;;;;;;;;5113468;28;20024;-86
2022/01/17 06:57:04;;;;;;;6.13;4.32;;;;;;;;;;5113640;28;20027;-87
2022/01/17 06:59:31;;;;;;;5.63;3.97;;;;;;;;;;5113299;28;20026;-81
2022/01/17 07:01:57;;;;;;;5.18;3.47;;;;;;;;;;5113610;28;20036;-84
2022/01/17 07:04:23;;;;;;;5.63;4.05;;;;;;;;;;5095069;28;20372;-82
2022/01/17 07:06:49;;;;;;;6.38;3.97;;;;;;;;;;5113516;28;20029;-84
2022/01/17 07:09:19;;;;;;;6.75;3.92;;;;;;;;;;5095536;28;20023;-84
2022/01/17 07:11:45;;;;;;;5.78;3.88;;;;;;;;;;5095378;28;20479;-87
2022/01/17 07:14:11;;;;;;;5.88;3.72;;;;;;;;;;5094931;28;20030;-83
2022/01/17 07:16:38;;;;;;;5.53;3.78;;;;;;;;;;5113256;28;20061;-87
2022/01/17 07:19:04;;;;;;;5.18;3.63;;;;;;;;;;5113422;28;20023;-83
2022/01/17 07:21:30;;;;;;;5.45;3.90;;;;;;;;;;5112942;28;20539;-84
2022/01/17 07:23:56;;;;;;;5.90;3.35;;;;;;;;;;5094815;28;20022;-83
2022/01/17 07:26:22;;;;;;;4.10;3.05;;;;;;;;;;5112170;28;20039;-83
2022/01/17 07:28:48;;;;;;;5.95;3.85;;;;;;;;;;5111359;28;20061;-81
2022/01/17 07:31:16;;;;;;;6.18;3.85;;;;;;;;;;5112809;28;20116;-79
2022/01/17 07:33:42;;;;;;;5.32;3.53;;;;;;;;;;5112700;28;20020;-82
2022/01/17 07:36:08;;;;;;;6.53;4.05;;;;;;;;;;5112957;28;20153;-82
2022/01/17 07:38:34;;;;;;;6.47;3.75;;;;;;;;;;5112724;28;20031;-81
2022/01/17 07:41:01;;;;;;;9.18;4.65;;;;;;;;;;5094391;28;20498;-81
2022/01/17 07:43:27;;;;;;;5.70;4.22;;;;;;;;;;5093711;28;20023;-80
2022/01/17 07:46:07;;;;;;;6.00;3.90;;;;;;;;;;5112878;28;20055;-77
2022/01/17 07:51:19;;;;;;;9.90;5.00;;;;;;;;;;5113004;28;20035;-78
2022/01/17 07:53:45;;;;;;;8.15;5.70;;;;;;;;;;5094692;28;20262;-78
2022/01/17 07:56:11;;;;;;;9.02;5.43;;;;;;;;;;5111168;28;20035;-79
2022/01/17 07:58:37;;;;;;;6.75;5.40;;;;;;;;;;5094048;28;20020;-77
2022/01/17 08:01:03;;;;;;;8.27;5.70;;;;;;;;;;5112461;28;20034;-77
2022/01/17 08:03:29;;;;;;;8.63;5.50;;;;;;;;;;5112157;28;20080;-77
2022/01/17 08:05:55;;;;;;;9.20;6.13;;;;;;;;;;5112297;28;20395;-77
2022/01/17 08:08:21;;;;;;;8.35;5.47;;;;;;;;;;5112071;28;20104;-77
2022/01/17 08:10:47;;;;;;;6.47;4.90;;;;;;;;;;5112668;28;20059;-77
2022/01/17 08:13:13;;;;;;;6.53;5.35;;;;;;;;;;5112342;28;20061;-77
2022/01/17 08:15:39;;;;;;;7.53;5.30;;;;;;;;;;5111928;28;20539;-79
2022/01/17 08:18:05;;;;;;;6.10;4.80;;;;;;;;;;5112303;28;20394;-78
2022/01/17 08:20:31;;;;;;;7.47;5.72;;;;;;;;;;5111731;28;20028;-77
2022/01/17 08:22:58;;;;;;;6.38;4.93;;;;;;;;;;5112183;28;20479;-77
2022/01/17 08:25:24;;;;;;;7.80;5.32;;;;;;;;;;5092248;28;20027;-77
2022/01/17 08:27:50;;;;;;;7.25;5.05;;;;;;;;;;5111674;28;20031;-78
2022/01/17 08:30:17;;;;;;;7.43;5.28;;;;;;;;;;5111808;28;20035;-78
2022/01/17 08:32:43;;;;;;;9.70;5.60;;;;;;;;;;5111833;28;20499;-75
2022/01/17 08:35:09;;;;;;;6.47;4.90;;;;;;;;;;5111822;28;20533;-77
2022/01/17 08:37:35;;;;;;;7.47;5.05;;;;;;;;;;5111740;28;20024;-77
2022/01/17 08:40:03;;;;;;;5.88;4.82;;;;;;;;;;5111874;28;20396;-76
2022/01/17 08:42:29;;;;;;;7.38;5.63;;;;;;;;;;5111565;28;20032;-76
2022/01/17 08:44:56;;;;;;;7.28;5.78;;;;;;;;;;5093406;28;20101;-75
2022/01/17 08:47:22;;;;;;;6.32;4.95;;;;;;;;;;5111330;28;20030;-76
2022/01/17 08:49:48;;;;;;;6.22;4.78;;;;;;;;;;5093645;28;20081;-78
2022/01/17 08:52:15;;;;;;;5.45;4.75;;;;;;;;;;5112077;28;20441;-76
2022/01/17 08:54:42;;;;;;;7.35;3.85;;;;;;;;;;5093225;28;20119;-77
2022/01/17 08:57:08;;;;;;;6.63;4.63;;;;;;;;;;5112008;28;20027;-77
2022/01/17 08:59:34;;;;;;;6.72;4.05;;;;;;;;;;5109851;28;20016;-76
2022/01/17 09:02:00;;;;;;;8.20;4.10;;;;;;;;;;5111469;28;20031;-77
2022/01/17 09:04:26;;;;;;;6.07;3.85;;;;;;;;;;5110517;28;20028;-78
2022/01/17 09:06:52;;;;;;;8.20;3.78;;;;;;;;;;5111190;28;20028;-78
2022/01/17 09:09:18;;;;;;;5.60;3.67;;;;;;;;;;5111779;28;20391;-77
2022/01/17 09:11:44;;;;;;;4.90;3.55;;;;;;;;;;5111744;28;20020;-76
2022/01/17 09:14:10;;;;;;;6.03;3.33;;;;;;;;;;5111588;28;20062;-77
2022/01/17 09:16:37;;;;;;;4.32;3.75;;;;;;;;;;5111105;28;20043;-77
2022/01/17 09:19:04;;;;;;;6.40;3.70;;;;;;;;;;5111374;28;20027;-77
2022/01/17 09:21:30;;;;;;;4.03;2.90;;;;;;;;;;5111258;28;20067;-78
2022/01/17 09:23:58;;;;;;;4.82;3.83;;;;;;;;;;5111346;28;20023;-78
2022/01/17 09:26:27;;;;;;;8.85;3.33;;;;;;;;;;5110921;28;20028;-78
2022/01/17 09:28:54;;;;;;;5.47;3.58;;;;;;;;;;5111315;28;20107;-79
2022/01/17 09:31:20;;;;;;;5.22;3.45;;;;;;;;;;5111107;28;20157;-79
2022/01/17 09:33:46;;;;;;;4.32;3.25;;;;;;;;;;5111559;28;20016;-77
2022/01/17 09:36:12;;;;;;;6.05;3.67;;;;;;;;;;5111722;28;20039;-78
2022/01/17 09:38:38;;;;;;;5.50;3.33;;;;;;;;;;5115055;28;20015;-78
2022/01/17 09:41:04;;;;;;;5.32;3.60;;;;;;;;;;5114785;28;20114;-78
2022/01/17 09:43:30;;;;;;;5.82;3.30;;;;;;;;;;5114659;28;20028;-78
2022/01/17 09:45:57;;;;;;;4.45;3.10;;;;;;;;;;5115194;28;20115;-77
2022/01/17 09:48:33;;;;;;;10.23;3.72;;;;;;;;;;5114718;28;20035;-76
2022/01/17 09:51:02;;;;;;;4.28;2.92;;;;;;;;;;5115093;28;20115;-77
2022/01/17 09:53:28;;;;;;;6.88;3.47;;;;;;;;;;5114784;28;20475;-79
2022/01/17 09:55:58;;;;;;;5.95;3.13;;;;;;;;;;5114548;28;20039;-78
2022/01/17 09:58:24;;;;;;;5.63;3.00;;;;;;;;;;5114782;28;20022;-78
2022/01/17 10:00:50;;;;;;;5.43;3.10;;;;;;;;;;5114609;28;20062;-79
2022/01/17 10:03:17;;;;;;;6.00;3.50;;;;;;;;;;5114995;28;20063;-80
2022/01/17 10:05:43;;;;;;;5.90;4.13;;;;;;;;;;5096296;28;20050;-83
2022/01/17 10:08:11;;;;;;;6.50;3.92;;;;;;;;;;5096483;28;20399;-75
2022/01/17 10:10:46;;;;;;;5.90;3.40;;;;;;;;;;5114496;28;20464;-80
2022/01/17 10:13:14;;;;;;;6.40;3.70;;;;;;;;;;5114560;28;20080;-74
2022/01/17 10:15:55;;;;;;;7.57;3.20;;;;;;;;;;5114437;28;20039;-76
2022/01/17 10:18:46;;;;;;;8.93;3.03;;;;;;;;;;5114348;28;20428;-78
2022/01/17 10:21:40;;;;;;;7.20;3.38;;;;;;;;;;5102765;28;20047;-76
2022/01/17 10:24:34;;;;;;;6.60;2.92;;;;;;;;;;5104996;28;20035;-78
2022/01/17 10:27:23;;;;;;;6.03;3.20;;;;;;;;;;5113703;28;20080;-78
2022/01/17 10:35:22;;;;;;;9.07;3.13;;;;;;;;;;5114014;28;20077;-75
2022/01/17 10:37:55;;;;;;;4.60;2.70;;;;;;;;;;5114631;28;20028;-77
2022/01/17 10:40:21;;;;;;;11.68;3.13;;;;;;;;;;5113924;28;20019;-79
2022/01/17 10:42:48;;;;;;;4.80;2.85;;;;;;;;;;5096065;28;20463;-80
2022/01/17 10:45:20;;;;;;;8.02;2.92;;;;;;;;;;5096019;28;20110;-75
2022/01/17 10:47:47;;;;;;;6.18;2.72;;;;;;;;;;5114075;28;20045;-75
2022/01/17 10:50:19;;;;;;;7.22;3.00;;;;;;;;;;5113571;28;20034;-74
2022/01/17 10:52:47;;;;;;;9.02;3.20;;;;;;;;;;5114099;28;20088;-77
2022/01/17 10:55:16;;;;;;;9.80;2.63;;;;;;;;;;5094357;28;20118;-76
2022/01/17 10:57:43;;;;;;;10.05;3.17;;;;;;;;;;5112844;28;20012;-75
2022/01/17 11:00:13;;;;;;;12.32;3.03;;;;;;;;;;5113554;28;20106;-78
2022/01/17 11:02:40;;;;;;;7.75;3.25;;;;;;;;;;5113266;28;20056;-78
2022/01/17 11:05:07;;;;;;;8.57;3.70;;;;;;;;;;5112963;28;20031;-77
2022/01/17 11:07:38;;;;;;;5.53;2.45;;;;;;;;;;5113202;28;20100;-79
2022/01/17 11:10:07;;;;;;;9.65;3.13;;;;;;;;;;5113529;28;20030;-77
2022/01/17 11:12:34;;;;;;;11.80;3.63;;;;;;;;;;5095035;28;20027;-78
2022/01/17 11:15:01;;;;;;;11.73;3.55;;;;;;;;;;5113239;28;20027;-76
2022/01/17 11:17:38;;;;;;;8.32;2.92;;;;;;;;;;5113254;28;20024;-78
2022/01/17 11:22:32;;;;;;;8.68;3.15;;;;;;;;;;5113201;28;20075;-77
2022/01/17 11:24:58;;;;;;;9.73;2.83;;;;;;;;;;5113913;28;20027;-75
2022/01/17 11:27:25;;;;;;;8.50;2.83;;;;;;;;;;5112938;28;20033;-76
2022/01/17 11:29:52;;;;;;;7.82;2.97;;;;;;;;;;5112591;28;20027;-77
2022/01/17 11:32:18;;;;;;;10.52;3.30;;;;;;;;;;5113147;28;20026;-76
2022/01/17 11:34:45;;;;;;;10.13;3.60;;;;;;;;;;5112781;28;20449;-77
2022/01/17 11:37:12;;;;;;;7.95;3.13;;;;;;;;;;5113059;28;20364;-76
2022/01/17 11:39:48;;;;;;;8.70;2.95;;;;;;;;;;5094419;28;20020;-82
2022/01/17 11:42:31;;;;;;;7.53;3.08;;;;;;;;;;5112603;28;20028;-78
2022/01/17 11:44:57;;;;;;;12.90;3.17;;;;;;;;;;5093293;28;20088;-77
2022/01/17 11:47:42;;;;;;;10.23;2.85;;;;;;;;;;5112217;28;20425;-79
2022/01/17 11:50:26;;;;;;;12.27;3.65;;;;;;;;;;5112892;28;20024;-86
2022/01/17 11:52:52;;;;;;;7.95;2.45;;;;;;;;;;5112931;28;20023;-81
2022/01/17 11:55:39;;;;;;;6.55;2.78;;;;;;;;;;5113137;28;20070;-78
2022/01/17 11:58:27;;;;;;;11.77;3.53;;;;;;;;;;5095345;28;20510;-76
2022/01/17 12:01:01;;;;;;;10.88;3.42;;;;;;;;;;5111524;28;20085;-77
2022/01/17 12:03:29;;;;;;;9.13;3.72;;;;;;;;;;5111594;28;20032;-77
2022/01/17 12:05:56;;;;;;;8.30;3.08;;;;;;;;;;5111836;28;20030;-78
2022/01/17 12:08:27;;;;;;;6.32;3.20;;;;;;;;;;5094037;28;20027;-81
2022/01/17 12:10:57;;;;;;;6.63;2.65;;;;;;;;;;5093979;28;20030;-76
2022/01/17 12:13:33;;;;;;;9.73;3.58;;;;;;;;;;5111646;28;20020;-79
2022/01/17 12:16:22;;;;;;;8.25;3.47;;;;;;;;;;5112154;28;20016;-76
2022/01/17 12:18:58;;;;;;;11.75;3.72;;;;;;;;;;5112542;28;20513;-76
2022/01/17 12:21:24;;;;;;;11.50;3.20;;;;;;;;;;5111732;28;20076;-78
2022/01/17 12:23:51;;;;;;;12.77;3.30;;;;;;;;;;5112957;27;20019;-76
2022/01/17 12:26:43;;;;;;;12.63;3.55;;;;;;;;;;5110575;28;20028;-77
2022/01/17 12:29:10;;;;;;;10.82;3.33;;;;;;;;;;5104656;28;20110;-78
2022/01/17 12:31:48;;;;;;;16.42;4.35;;;;;;;;;;5109892;28;20110;-80
2022/01/17 12:34:14;;;;;;;11.02;4.20;;;;;;;;;;5109342;28;20090;-81
2022/01/17 12:36:42;;;;;;;8.10;3.58;;;;;;;;;;5109779;28;20032;-77
2022/01/17 12:39:15;;;;;;;17.92;4.00;;;;;;;;;;5110186;28;20039;-76
2022/01/17 12:41:42;;;;;;;16.50;4.00;;;;;;;;;;5109337;28;20047;-79
2022/01/17 12:44:14;;;;;;;10.00;3.00;;;;;;;;;;5110028;28;20027;-75
2022/01/17 12:46:42;;;;;;;9.50;3.45;;;;;;;;;;5107105;28;20027;-75
2022/01/17 12:49:08;;;;;;;12.27;3.25;;;;;;;;;;5110257;28;20043;-75
2022/01/17 12:51:34;;;;;;;7.82;3.08;;;;;;;;;;5109696;28;20395;-75
2022/01/17 12:54:02;;;;;;;8.82;3.70;;;;;;;;;;5107442;28;20472;-79
2022/01/17 12:56:29;;;;;;;10.18;3.20;;;;;;;;;;5110663;28;20483;-76
2022/01/17 12:58:59;;;;;;;6.72;2.55;;;;;;;;;;5109745;28;20436;-75
2022/01/17 13:01:26;;;;;;;7.78;3.20;;;;;;;;;;5109593;28;20491;-76
2022/01/17 13:03:52;;;;;;;10.23;3.47;;;;;;;;;;5110445;28;20066;-75
2022/01/17 13:06:19;;;;;;;8.48;3.50;;;;;;;;;;5111031;28;20046;-76
2022/01/17 13:08:46;;;;;;;8.82;3.05;;;;;;;;;;5111436;28;20039;-76
2022/01/17 13:11:13;;;;;;;7.20;2.85;;;;;;;;;;5093643;28;20115;-78
2022/01/17 13:13:49;;;;;;;7.20;2.83;;;23.70;49.30;;;;;;5115551;28;20028;-76
2022/01/17 13:16:17;;;;;;;8.35;3.25;;;23.40;49.10;;;;;;5116108;28;20109;-75
2022/01/17 13:18:43;;;;;;;8.07;2.72;;;23.30;49.30;;;;;;5115461;28;20522;-76
2022/01/17 13:21:09;;;;;;;8.20;3.10;;;23.30;49.60;;;;;;5115571;28;20031;-76
2022/01/17 13:23:47;;;;;;;8.00;3.08;;;23.20;49.90;;;;;;5095493;28;20030;-75
2022/01/17 13:26:14;;;;;;;6.63;2.55;;;23.10;50.10;;;;;;5111383;28;20015;-76
2022/01/17 13:28:47;;;;;;;8.30;2.83;;;;;;;;;;5115127;28;20390;-77
2022/01/17 13:31:16;;;;;;;6.95;2.83;;;;;;;;;;5097114;28;20032;-77
2022/01/17 13:33:42;;;;;;;8.77;3.10;;;;;;;;;;5096364;28;20110;-76
2022/01/17 13:36:08;;;;;;;8.95;2.92;;;;;;;;;;5114461;28;20067;-76
2022/01/17 13:38:34;;;;;;;6.70;2.20;;;;;;;;;;5114716;28;20042;-76
2022/01/17 13:41:02;;;;;;;7.18;2.67;;;;;;;;;;5115104;28;20023;-77
2022/01/17 13:43:29;;;;;;;9.30;2.58;;;23.10;50.20;;;;;;5114446;28;20024;-77
2022/01/17 13:45:55;;;;;;;5.50;2.60;;;22.50;50.30;;;;;;5114100;28;20019;-76
2022/01/17 13:48:25;;;;;;;5.78;2.65;;;22.40;50.90;;;;;;5095604;28;20437;-76
2022/01/17 13:50:54;;;;;;;5.22;2.25;;;;;;;;;;5114925;28;20023;-81
2022/01/17 13:53:21;;;;;;;5.28;2.28;;;;;;;;;;5113221;28;20028;-81
2022/01/17 13:55:48;;;;;;;5.68;2.97;;;;;;;;;;5114097;28;20054;-79
2022/01/17 13:58:18;;;;;;;7.30;2.65;;;;;;;;;;5097147;28;20414;-80
2022/01/17 14:01:00;;;;;;;9.13;2.95;;;;;;;;;;5115067;28;20080;-81
2022/01/17 14:03:30;;;;;;;7.93;2.80;;;;;;;;;;5095012;28;20123;-83
2022/01/17 14:05:57;;;;;;;7.03;2.45;;;;;;;;;;5114321;28;20066;-82
2022/01/17 14:08:27;;;;;;;7.10;2.65;;;;;;;;;;5113700;28;20034;-83
2022/01/17 14:11:20;;;;;;;8.25;3.13;;;;;;;;;;5113098;28;20027;-83
2022/01/17 14:13:47;;;;;;;8.27;2.50;;;22.20;51.20;;;;;;5090282;28;20048;-84
2022/01/17 14:16:22;;;;;;;7.22;3.03;;;21.30;52.30;;;;;;5102706;28;20024;-82
2022/01/17 14:18:52;;;;;;;;;;;21.30;52.30;;;;;;5112848;28;20035;-83
2022/01/17 14:21:26;;;;;;;8.88;2.95;;;21.20;52.40;;;;;;5114817;28;19915;-82
2022/01/17 14:24:11;;;;;;;8.55;2.35;;;;;;;;;;5112831;27;20028;-82
2022/01/17 14:26:38;;;;;;;7.43;2.38;;;;;;;;;;5113499;28;20066;-80
2022/01/17 14:29:07;;;;;;;6.82;2.78;;;;;;;;;;5114290;28;20490;-83
2022/01/17 14:31:34;;;;;;;4.50;1.95;;;;;;;;;;5114108;28;20383;-82
2022/01/17 14:34:11;;;;;;;6.18;2.65;;;;;;;;;;5113550;28;20471;-79
2022/01/17 14:36:37;;;;;;;4.82;2.22;;;;;;;;;;5113229;28;20032;-79
2022/01/17 14:39:05;;;;;;;5.90;3.00;;;;;;;;;;5114053;28;20052;-80
2022/01/17 14:41:36;;;;;;;4.72;2.25;;;;;;;;;;5113139;27;20046;-80
2022/01/17 14:44:04;;;;;;;6.22;2.42;;;;;;;;;;5113899;28;20114;-80
2022/01/17 14:46:30;;;;;;;9.82;2.40;;;;;;;;;;5113796;28;20039;-80
2022/01/17 14:48:56;;;;;;;7.07;3.08;;;;;;;;;;5112854;28;20064;-82
2022/01/17 14:51:26;;;;;;;5.13;2.20;;;;;;;;;;5113191;28;20046;-81
2022/01/17 14:53:57;;;;;;;6.65;2.45;;;;;;;;;;5112952;28;20038;-80
2022/01/17 15:02:04;;;;;;;6.25;2.90;;;;;;;;;;5113373;28;20050;-79
2022/01/17 15:04:35;;;;;;;6.43;2.50;;;;;;;;;;5113442;28;20011;-81
2022/01/17 15:07:01;;;;;;;6.85;2.50;;;;;;;;;;5113584;28;20023;-81
2022/01/17 15:09:27;;;;;;;8.20;3.45;;;;;;;;;;5112415;28;20024;-82
2022/01/17 15:11:53;;;;;;;5.30;2.85;;;;;;;;;;5111552;28;20028;-82